WUK8380 EGGW-LEBL
Flight info
| Callsign | WUK8380 |
|---|---|
| Flight time | N/A |
| Altitude | 33000 |
| Route | RODNI N27 ICTAM Q63 CPT N859 VAPID UN859 SOPIL DCT BALAN DCT EVPOK DCT NARAK DCT GAI DCT LOMRA DCT ROCAN DCT PUMAL |
| Aircraft | A321/M-SDE3FGHIRWY/LB1 |
Departure
| Time | 2026-05-01 13:43 |
|---|---|
| Airport | London Luton Airport (EGGW) |
Arrival
| Time | N/A |
|---|---|
| Airport | Josep Tarradellas Barcelona-El Prat Airport (LEBL) |
| Time | Latitude | Longitude | Altitude | Speed | Heading |
|---|---|---|---|---|---|
| 2026-05-01 13:11 | 51.87980 | -0.37206 | 509 ft | 0 kts | 161° |
| 2026-05-01 13:33 | 51.88026 | -0.37215 | 508 ft | 3 kts | 165° |
| 2026-05-01 13:33 | 51.88036 | -0.37243 | 508 ft | 1 kts | 72° |
| 2026-05-01 13:34 | 51.88029 | -0.37275 | 508 ft | 0 kts | 72° |
| 2026-05-01 13:36 | 51.88029 | -0.37274 | 508 ft | 0 kts | 72° |
| 2026-05-01 13:36 | 51.88037 | -0.37234 | 508 ft | 8 kts | 72° |
| 2026-05-01 13:36 | 51.87975 | -0.37109 | 508 ft | 8 kts | 161° |
| 2026-05-01 13:37 | 51.87919 | -0.37079 | 509 ft | 9 kts | 161° |
| 2026-05-01 13:37 | 51.87865 | -0.37050 | 511 ft | 7 kts | 162° |
| 2026-05-01 13:37 | 51.87831 | -0.37033 | 513 ft | 5 kts | 162° |
| 2026-05-01 13:37 | 51.87782 | -0.37007 | 516 ft | 7 kts | 161° |
| 2026-05-01 13:38 | 51.87694 | -0.36960 | 522 ft | 12 kts | 161° |
| 2026-05-01 13:38 | 51.87631 | -0.36994 | 522 ft | 12 kts | 240° |
| 2026-05-01 13:38 | 51.87603 | -0.37120 | 522 ft | 12 kts | 255° |
| 2026-05-01 13:39 | 51.87580 | -0.37258 | 522 ft | 13 kts | 259° |
| 2026-05-01 13:39 | 51.87578 | -0.37408 | 522 ft | 13 kts | 253° |
| 2026-05-01 13:39 | 51.87513 | -0.37508 | 521 ft | 14 kts | 230° |
| 2026-05-01 13:39 | 51.87485 | -0.37644 | 523 ft | 13 kts | 254° |
| 2026-05-01 13:40 | 51.87460 | -0.37791 | 523 ft | 17 kts | 255° |
| 2026-05-01 13:40 | 51.87416 | -0.37994 | 524 ft | 19 kts | 234° |
| 2026-05-01 13:40 | 51.87352 | -0.38079 | 522 ft | 0 kts | 205° |
| 2026-05-01 13:41 | 51.87351 | -0.38080 | 522 ft | 1 kts | 205° |
| 2026-05-01 13:41 | 51.87325 | -0.38098 | 522 ft | 10 kts | 200° |
| 2026-05-01 13:41 | 51.87257 | -0.38077 | 523 ft | 10 kts | 115° |
| 2026-05-01 13:42 | 51.87263 | -0.38001 | 524 ft | 0 kts | 74° |
| 2026-05-01 13:42 | 51.87280 | -0.37899 | 524 ft | 39 kts | 74° |
| 2026-05-01 13:42 | 51.87431 | -0.37024 | 523 ft | 119 kts | 74° |
| 2026-05-01 13:43 | 51.87702 | -0.35396 | 592 ft | 173 kts | 79° |
| 2026-05-01 13:43 | 51.88012 | -0.33547 | 1605 ft | 168 kts | 79° |
| 2026-05-01 13:43 | 51.88342 | -0.31735 | 2350 ft | 173 kts | 77° |
| 2026-05-01 13:43 | 51.88701 | -0.29755 | 2662 ft | 193 kts | 79° |
| 2026-05-01 13:44 | 51.89086 | -0.27580 | 3117 ft | 207 kts | 78° |
| 2026-05-01 13:44 | 51.89192 | -0.25253 | 3429 ft | 213 kts | 110° |
| 2026-05-01 13:44 | 51.88354 | -0.23218 | 3606 ft | 229 kts | 145° |
| 2026-05-01 13:44 | 51.86829 | -0.22287 | 3911 ft | 246 kts | 180° |
| 2026-05-01 13:45 | 51.85182 | -0.23048 | 4583 ft | 254 kts | 215° |
| 2026-05-01 13:45 | 51.84085 | -0.25306 | 5285 ft | 263 kts | 245° |
| 2026-05-01 13:45 | 51.83512 | -0.28089 | 6035 ft | 267 kts | 251° |
| 2026-05-01 13:45 | 51.83079 | -0.31022 | 6724 ft | 271 kts | 254° |
| 2026-05-01 13:46 | 51.82686 | -0.34014 | 6938 ft | 273 kts | 255° |
| 2026-05-01 13:46 | 51.82295 | -0.37008 | 7112 ft | 273 kts | 254° |
| 2026-05-01 13:46 | 51.81886 | -0.40007 | 7158 ft | 273 kts | 253° |
| 2026-05-01 13:46 | 51.81403 | -0.42950 | 7157 ft | 269 kts | 242° |
| 2026-05-01 13:47 | 51.80262 | -0.45271 | 7626 ft | 265 kts | 212° |
| 2026-05-01 13:47 | 51.78608 | -0.46534 | 8335 ft | 265 kts | 198° |
| 2026-05-01 13:47 | 51.76852 | -0.47460 | 9076 ft | 266 kts | 196° |
| 2026-05-01 13:47 | 51.75077 | -0.48357 | 9787 ft | 269 kts | 196° |
| 2026-05-01 13:48 | 51.73277 | -0.49260 | 10360 ft | 276 kts | 196° |
| 2026-05-01 13:48 | 51.71373 | -0.50206 | 10492 ft | 299 kts | 196° |